sensor_id;sensor_type;location;lat;lon;timestamp;P1;durP1;ratioP1;P2;durP2;ratioP2
57297;SDS011;43147;50.972;18.210;2022-12-07T00:01:32;19.40;;;11.80;;
57297;SDS011;43147;50.972;18.210;2022-12-07T00:05:09;20.60;;;11.40;;
57297;SDS011;43147;50.972;18.210;2022-12-07T00:08:47;23.20;;;12.10;;
57297;SDS011;43147;50.972;18.210;2022-12-07T00:12:24;21.70;;;11.70;;
57297;SDS011;43147;50.972;18.210;2022-12-07T00:16:05;26.50;;;14.80;;
57297;SDS011;43147;50.972;18.210;2022-12-07T00:19:41;24.00;;;12.80;;
57297;SDS011;43147;50.972;18.210;2022-12-07T00:23:21;20.70;;;11.40;;
57297;SDS011;43147;50.972;18.210;2022-12-07T00:26:57;15.50;;;10.10;;
57297;SDS011;43147;50.972;18.210;2022-12-07T00:30:34;10.40;;;6.90;;
57297;SDS011;43147;50.972;18.210;2022-12-07T00:34:16;17.00;;;8.70;;
57297;SDS011;43147;50.972;18.210;2022-12-07T00:37:53;17.60;;;9.50;;
57297;SDS011;43147;50.972;18.210;2022-12-07T00:41:31;11.30;;;8.60;;
57297;SDS011;43147;50.972;18.210;2022-12-07T00:45:08;19.70;;;10.90;;
57297;SDS011;43147;50.972;18.210;2022-12-07T00:48:46;13.40;;;9.10;;
57297;SDS011;43147;50.972;18.210;2022-12-07T00:52:24;16.90;;;9.60;;
57297;SDS011;43147;50.972;18.210;2022-12-07T00:56:08;15.90;;;10.00;;
57297;SDS011;43147;50.972;18.210;2022-12-07T00:59:46;20.70;;;12.30;;
57297;SDS011;43147;50.972;18.210;2022-12-07T01:03:24;20.20;;;11.30;;
57297;SDS011;43147;50.972;18.210;2022-12-07T01:07:02;23.90;;;13.60;;
57297;SDS011;43147;50.972;18.210;2022-12-07T01:10:39;20.90;;;12.40;;
57297;SDS011;43147;50.972;18.210;2022-12-07T01:14:17;20.00;;;11.90;;
57297;SDS011;43147;50.972;18.210;2022-12-07T01:17:55;21.10;;;11.40;;
57297;SDS011;43147;50.972;18.210;2022-12-07T01:21:33;19.00;;;12.60;;
57297;SDS011;43147;50.972;18.210;2022-12-07T01:25:11;22.30;;;13.60;;
57297;SDS011;43147;50.972;18.210;2022-12-07T01:28:48;22.00;;;13.40;;
57297;SDS011;43147;50.972;18.210;2022-12-07T01:32:26;21.40;;;13.50;;
57297;SDS011;43147;50.972;18.210;2022-12-07T01:39:50;20.00;;;13.40;;
57297;SDS011;43147;50.972;18.210;2022-12-07T01:43:28;29.20;;;15.40;;
57297;SDS011;43147;50.972;18.210;2022-12-07T01:47:06;29.00;;;15.60;;
57297;SDS011;43147;50.972;18.210;2022-12-07T01:50:43;35.10;;;17.80;;
57297;SDS011;43147;50.972;18.210;2022-12-07T01:54:20;32.40;;;15.60;;
57297;SDS011;43147;50.972;18.210;2022-12-07T01:57:58;34.00;;;16.70;;
57297;SDS011;43147;50.972;18.210;2022-12-07T02:01:36;22.00;;;13.30;;
57297;SDS011;43147;50.972;18.210;2022-12-07T02:05:14;19.90;;;13.50;;
57297;SDS011;43147;50.972;18.210;2022-12-07T02:08:51;22.60;;;13.70;;
57297;SDS011;43147;50.972;18.210;2022-12-07T02:12:29;24.80;;;13.70;;
57297;SDS011;43147;50.972;18.210;2022-12-07T02:28:04;22.60;;;11.10;;
57297;SDS011;43147;50.972;18.210;2022-12-07T02:31:57;20.90;;;12.30;;
57297;SDS011;43147;50.972;18.210;2022-12-07T02:35:46;17.10;;;11.60;;
57297;SDS011;43147;50.972;18.210;2022-12-07T02:39:52;18.60;;;11.30;;
57297;SDS011;43147;50.972;18.210;2022-12-07T02:43:34;25.70;;;10.90;;
57297;SDS011;43147;50.972;18.210;2022-12-07T02:47:14;18.10;;;11.40;;
57297;SDS011;43147;50.972;18.210;2022-12-07T02:50:53;16.20;;;10.70;;
57297;SDS011;43147;50.972;18.210;2022-12-07T02:54:31;19.80;;;11.70;;
57297;SDS011;43147;50.972;18.210;2022-12-07T02:58:19;19.10;;;11.90;;
57297;SDS011;43147;50.972;18.210;2022-12-07T03:06:00;15.60;;;9.70;;
57297;SDS011;43147;50.972;18.210;2022-12-07T03:14:02;12.50;;;9.80;;
57297;SDS011;43147;50.972;18.210;2022-12-07T03:17:44;11.70;;;8.50;;
57297;SDS011;43147;50.972;18.210;2022-12-07T03:21:23;13.70;;;8.50;;
57297;SDS011;43147;50.972;18.210;2022-12-07T03:25:06;12.70;;;7.90;;
57297;SDS011;43147;50.972;18.210;2022-12-07T03:28:47;13.50;;;8.50;;
57297;SDS011;43147;50.972;18.210;2022-12-07T03:32:26;11.40;;;8.00;;
57297;SDS011;43147;50.972;18.210;2022-12-07T03:36:08;17.60;;;10.10;;
57297;SDS011;43147;50.972;18.210;2022-12-07T03:40:03;14.70;;;9.50;;
57297;SDS011;43147;50.972;18.210;2022-12-07T03:43:41;16.90;;;9.80;;
57297;SDS011;43147;50.972;18.210;2022-12-07T03:51:14;15.90;;;9.40;;
57297;SDS011;43147;50.972;18.210;2022-12-07T03:55:00;12.40;;;8.20;;
57297;SDS011;43147;50.972;18.210;2022-12-07T03:58:42;13.40;;;9.30;;
57297;SDS011;43147;50.972;18.210;2022-12-07T04:02:20;13.80;;;8.60;;
57297;SDS011;43147;50.972;18.210;2022-12-07T04:05:58;14.60;;;9.10;;
57297;SDS011;43147;50.972;18.210;2022-12-07T04:09:35;12.60;;;9.40;;
57297;SDS011;43147;50.972;18.210;2022-12-07T04:13:13;12.40;;;8.70;;
57297;SDS011;43147;50.972;18.210;2022-12-07T04:16:53;14.20;;;9.50;;
57297;SDS011;43147;50.972;18.210;2022-12-07T04:20:31;12.60;;;7.80;;
57297;SDS011;43147;50.972;18.210;2022-12-07T04:24:09;12.90;;;8.30;;
57297;SDS011;43147;50.972;18.210;2022-12-07T04:27:47;12.10;;;6.90;;
57297;SDS011;43147;50.972;18.210;2022-12-07T04:31:24;10.30;;;7.10;;
57297;SDS011;43147;50.972;18.210;2022-12-07T04:35:21;10.80;;;7.80;;
57297;SDS011;43147;50.972;18.210;2022-12-07T04:38:39;13.10;;;8.70;;
57297;SDS011;43147;50.972;18.210;2022-12-07T04:42:17;13.00;;;8.50;;
57297;SDS011;43147;50.972;18.210;2022-12-07T04:45:55;9.80;;;7.00;;
57297;SDS011;43147;50.972;18.210;2022-12-07T04:49:33;12.40;;;7.50;;
57297;SDS011;43147;50.972;18.210;2022-12-07T04:53:10;12.60;;;7.70;;
57297;SDS011;43147;50.972;18.210;2022-12-07T04:56:48;12.70;;;7.60;;
57297;SDS011;43147;50.972;18.210;2022-12-07T05:00:24;9.70;;;7.30;;
57297;SDS011;43147;50.972;18.210;2022-12-07T05:04:03;11.30;;;6.80;;
57297;SDS011;43147;50.972;18.210;2022-12-07T05:07:41;8.40;;;5.70;;
57297;SDS011;43147;50.972;18.210;2022-12-07T05:11:19;8.10;;;5.50;;
57297;SDS011;43147;50.972;18.210;2022-12-07T05:15:13;6.60;;;4.60;;
57297;SDS011;43147;50.972;18.210;2022-12-07T05:18:50;6.60;;;5.60;;
57297;SDS011;43147;50.972;18.210;2022-12-07T05:22:28;6.50;;;4.90;;
57297;SDS011;43147;50.972;18.210;2022-12-07T05:26:06;8.70;;;5.10;;
57297;SDS011;43147;50.972;18.210;2022-12-07T05:29:43;5.50;;;4.50;;
57297;SDS011;43147;50.972;18.210;2022-12-07T05:33:21;6.40;;;5.50;;
57297;SDS011;43147;50.972;18.210;2022-12-07T05:36:59;6.70;;;4.90;;
57297;SDS011;43147;50.972;18.210;2022-12-07T05:40:36;6.80;;;5.00;;
57297;SDS011;43147;50.972;18.210;2022-12-07T05:44:14;11.00;;;6.50;;
57297;SDS011;43147;50.972;18.210;2022-12-07T05:47:52;15.20;;;7.80;;
57297;SDS011;43147;50.972;18.210;2022-12-07T05:51:29;11.10;;;6.30;;
57297;SDS011;43147;50.972;18.210;2022-12-07T05:55:07;7.60;;;6.30;;
57297;SDS011;43147;50.972;18.210;2022-12-07T05:58:45;8.70;;;6.00;;
57297;SDS011;43147;50.972;18.210;2022-12-07T06:02:39;5.10;;;4.00;;
57297;SDS011;43147;50.972;18.210;2022-12-07T06:06:17;10.10;;;7.70;;
57297;SDS011;43147;50.972;18.210;2022-12-07T06:09:54;12.00;;;8.60;;
57297;SDS011;43147;50.972;18.210;2022-12-07T06:13:32;14.00;;;8.50;;
57297;SDS011;43147;50.972;18.210;2022-12-07T06:17:10;7.70;;;6.30;;
57297;SDS011;43147;50.972;18.210;2022-12-07T06:20:47;11.60;;;7.50;;
57297;SDS011;43147;50.972;18.210;2022-12-07T06:24:25;9.20;;;6.30;;
57297;SDS011;43147;50.972;18.210;2022-12-07T06:28:02;8.00;;;6.40;;
57297;SDS011;43147;50.972;18.210;2022-12-07T06:31:40;8.70;;;7.80;;
57297;SDS011;43147;50.972;18.210;2022-12-07T06:35:18;10.40;;;7.20;;
57297;SDS011;43147;50.972;18.210;2022-12-07T06:38:56;10.50;;;7.70;;
57297;SDS011;43147;50.972;18.210;2022-12-07T06:42:33;12.00;;;9.40;;
57297;SDS011;43147;50.972;18.210;2022-12-07T06:46:11;15.20;;;11.30;;
57297;SDS011;43147;50.972;18.210;2022-12-07T06:49:49;11.80;;;8.50;;
57297;SDS011;43147;50.972;18.210;2022-12-07T06:53:26;10.30;;;8.70;;
57297;SDS011;43147;50.972;18.210;2022-12-07T06:57:04;10.90;;;7.30;;
57297;SDS011;43147;50.972;18.210;2022-12-07T07:00:42;9.50;;;8.40;;
57297;SDS011;43147;50.972;18.210;2022-12-07T07:04:19;15.20;;;10.50;;
57297;SDS011;43147;50.972;18.210;2022-12-07T07:07:57;16.80;;;9.70;;
57297;SDS011;43147;50.972;18.210;2022-12-07T07:11:35;17.20;;;11.80;;
57297;SDS011;43147;50.972;18.210;2022-12-07T07:15:12;11.90;;;9.30;;
57297;SDS011;43147;50.972;18.210;2022-12-07T07:18:50;13.50;;;9.60;;
57297;SDS011;43147;50.972;18.210;2022-12-07T07:22:28;10.80;;;8.50;;
57297;SDS011;43147;50.972;18.210;2022-12-07T07:26:05;11.00;;;7.50;;
57297;SDS011;43147;50.972;18.210;2022-12-07T07:29:43;9.90;;;8.00;;
57297;SDS011;43147;50.972;18.210;2022-12-07T07:33:21;8.90;;;6.20;;
57297;SDS011;43147;50.972;18.210;2022-12-07T07:36:59;19.20;;;11.10;;
57297;SDS011;43147;50.972;18.210;2022-12-07T07:40:36;14.70;;;8.70;;
57297;SDS011;43147;50.972;18.210;2022-12-07T07:44:14;25.60;;;13.30;;
57297;SDS011;43147;50.972;18.210;2022-12-07T07:47:52;22.30;;;13.00;;
57297;SDS011;43147;50.972;18.210;2022-12-07T07:51:30;18.50;;;12.00;;
57297;SDS011;43147;50.972;18.210;2022-12-07T07:55:07;24.10;;;13.40;;
57297;SDS011;43147;50.972;18.210;2022-12-07T07:58:45;20.20;;;10.40;;
57297;SDS011;43147;50.972;18.210;2022-12-07T08:02:23;28.50;;;15.80;;
57297;SDS011;43147;50.972;18.210;2022-12-07T08:06:01;34.50;;;15.50;;
57297;SDS011;43147;50.972;18.210;2022-12-07T08:09:38;33.20;;;16.50;;
57297;SDS011;43147;50.972;18.210;2022-12-07T08:13:16;27.50;;;14.30;;
57297;SDS011;43147;50.972;18.210;2022-12-07T08:16:54;30.60;;;15.90;;
57297;SDS011;43147;50.972;18.210;2022-12-07T08:20:32;37.90;;;18.20;;
57297;SDS011;43147;50.972;18.210;2022-12-07T08:24:09;37.90;;;18.60;;
57297;SDS011;43147;50.972;18.210;2022-12-07T08:27:47;33.60;;;16.90;;
57297;SDS011;43147;50.972;18.210;2022-12-07T08:31:25;35.30;;;17.40;;
57297;SDS011;43147;50.972;18.210;2022-12-07T08:35:02;41.30;;;20.30;;
57297;SDS011;43147;50.972;18.210;2022-12-07T08:38:40;29.80;;;16.70;;
57297;SDS011;43147;50.972;18.210;2022-12-07T08:42:18;36.80;;;18.60;;
57297;SDS011;43147;50.972;18.210;2022-12-07T08:49:40;32.50;;;17.30;;
57297;SDS011;43147;50.972;18.210;2022-12-07T08:53:17;35.20;;;18.50;;
57297;SDS011;43147;50.972;18.210;2022-12-07T08:56:54;35.80;;;17.30;;
57297;SDS011;43147;50.972;18.210;2022-12-07T09:00:33;34.70;;;16.70;;
57297;SDS011;43147;50.972;18.210;2022-12-07T09:04:11;32.50;;;14.00;;
57297;SDS011;43147;50.972;18.210;2022-12-07T09:07:49;32.40;;;15.90;;
57297;SDS011;43147;50.972;18.210;2022-12-07T09:11:27;34.60;;;17.00;;
57297;SDS011;43147;50.972;18.210;2022-12-07T09:15:07;30.20;;;15.40;;
57297;SDS011;43147;50.972;18.210;2022-12-07T09:18:44;31.60;;;16.00;;
57297;SDS011;43147;50.972;18.210;2022-12-07T09:22:21;29.70;;;14.00;;
57297;SDS011;43147;50.972;18.210;2022-12-07T09:26:02;29.40;;;15.40;;
57297;SDS011;43147;50.972;18.210;2022-12-07T09:29:42;59.80;;;28.40;;
57297;SDS011;43147;50.972;18.210;2022-12-07T09:33:18;43.20;;;19.00;;
57297;SDS011;43147;50.972;18.210;2022-12-07T09:36:55;25.10;;;14.10;;
57297;SDS011;43147;50.972;18.210;2022-12-07T09:40:33;42.10;;;18.10;;
57297;SDS011;43147;50.972;18.210;2022-12-07T09:44:23;31.70;;;16.90;;
57297;SDS011;43147;50.972;18.210;2022-12-07T09:47:59;61.30;;;26.30;;
57297;SDS011;43147;50.972;18.210;2022-12-07T09:51:37;50.10;;;25.50;;
57297;SDS011;43147;50.972;18.210;2022-12-07T09:55:16;59.80;;;30.10;;
57297;SDS011;43147;50.972;18.210;2022-12-07T09:58:58;35.80;;;19.00;;
57297;SDS011;43147;50.972;18.210;2022-12-07T10:02:37;27.40;;;16.30;;
57297;SDS011;43147;50.972;18.210;2022-12-07T10:06:17;26.30;;;21.10;;
57297;SDS011;43147;50.972;18.210;2022-12-07T10:10:17;24.20;;;15.50;;
57297;SDS011;43147;50.972;18.210;2022-12-07T10:17:46;22.90;;;16.30;;
57297;SDS011;43147;50.972;18.210;2022-12-07T10:24:56;24.30;;;15.70;;
57297;SDS011;43147;50.972;18.210;2022-12-07T10:28:43;19.80;;;14.00;;
57297;SDS011;43147;50.972;18.210;2022-12-07T10:36:35;24.80;;;14.30;;
57297;SDS011;43147;50.972;18.210;2022-12-07T10:39:50;26.40;;;14.90;;
57297;SDS011;43147;50.972;18.210;2022-12-07T10:43:27;22.40;;;14.00;;
57297;SDS011;43147;50.972;18.210;2022-12-07T10:54:42;24.60;;;13.70;;
57297;SDS011;43147;50.972;18.210;2022-12-07T11:06:39;27.90;;;16.20;;
57297;SDS011;43147;50.972;18.210;2022-12-07T11:10:40;25.70;;;16.10;;
57297;SDS011;43147;50.972;18.210;2022-12-07T11:14:23;25.00;;;16.50;;
57297;SDS011;43147;50.972;18.210;2022-12-07T11:36:37;78.00;;;32.80;;
57297;SDS011;43147;50.972;18.210;2022-12-07T11:43:59;19.00;;;12.40;;
57297;SDS011;43147;50.972;18.210;2022-12-07T11:48:01;20.70;;;13.00;;
57297;SDS011;43147;50.972;18.210;2022-12-07T11:51:39;23.50;;;13.50;;
57297;SDS011;43147;50.972;18.210;2022-12-07T11:55:26;20.70;;;13.90;;
57297;SDS011;43147;50.972;18.210;2022-12-07T11:59:11;19.60;;;13.20;;
57297;SDS011;43147;50.972;18.210;2022-12-07T12:03:13;22.40;;;14.10;;
57297;SDS011;43147;50.972;18.210;2022-12-07T12:06:29;45.60;;;20.30;;
57297;SDS011;43147;50.972;18.210;2022-12-07T12:10:18;132.30;;;47.50;;
57297;SDS011;43147;50.972;18.210;2022-12-07T12:14:23;130.20;;;50.80;;
57297;SDS011;43147;50.972;18.210;2022-12-07T12:18:16;119.40;;;45.60;;
57297;SDS011;43147;50.972;18.210;2022-12-07T12:21:57;58.40;;;29.20;;
57297;SDS011;43147;50.972;18.210;2022-12-07T12:29:35;13.00;;;9.80;;
57297;SDS011;43147;50.972;18.210;2022-12-07T12:37:01;22.40;;;12.10;;
57297;SDS011;43147;50.972;18.210;2022-12-07T12:40:39;21.10;;;12.80;;
57297;SDS011;43147;50.972;18.210;2022-12-07T12:48:00;24.00;;;13.40;;
57297;SDS011;43147;50.972;18.210;2022-12-07T12:51:38;14.60;;;10.00;;
57297;SDS011;43147;50.972;18.210;2022-12-07T12:55:20;19.30;;;11.10;;
57297;SDS011;43147;50.972;18.210;2022-12-07T13:02:59;19.00;;;10.40;;
57297;SDS011;43147;50.972;18.210;2022-12-07T13:06:36;22.00;;;10.40;;
57297;SDS011;43147;50.972;18.210;2022-12-07T13:18:22;22.10;;;10.20;;
57297;SDS011;43147;50.972;18.210;2022-12-07T13:30:19;12.10;;;7.90;;
57297;SDS011;43147;50.972;18.210;2022-12-07T13:33:55;17.10;;;8.10;;
57297;SDS011;43147;50.972;18.210;2022-12-07T13:37:33;14.50;;;9.30;;
57297;SDS011;43147;50.972;18.210;2022-12-07T13:41:13;14.40;;;10.20;;
57297;SDS011;43147;50.972;18.210;2022-12-07T13:44:50;15.30;;;10.30;;
57297;SDS011;43147;50.972;18.210;2022-12-07T13:48:32;25.70;;;13.60;;
57297;SDS011;43147;50.972;18.210;2022-12-07T13:55:57;29.10;;;13.90;;
57297;SDS011;43147;50.972;18.210;2022-12-07T13:59:34;22.70;;;13.90;;
57297;SDS011;43147;50.972;18.210;2022-12-07T14:06:50;37.30;;;21.20;;
57297;SDS011;43147;50.972;18.210;2022-12-07T14:10:31;25.20;;;15.20;;
57297;SDS011;43147;50.972;18.210;2022-12-07T14:14:14;19.40;;;12.00;;
57297;SDS011;43147;50.972;18.210;2022-12-07T14:17:56;23.90;;;15.50;;
57297;SDS011;43147;50.972;18.210;2022-12-07T14:21:34;29.20;;;14.60;;
57297;SDS011;43147;50.972;18.210;2022-12-07T14:25:22;31.90;;;16.20;;
57297;SDS011;43147;50.972;18.210;2022-12-07T14:33:01;38.80;;;19.70;;
57297;SDS011;43147;50.972;18.210;2022-12-07T14:36:37;30.80;;;14.30;;
57297;SDS011;43147;50.972;18.210;2022-12-07T14:43:58;24.70;;;14.20;;
57297;SDS011;43147;50.972;18.210;2022-12-07T14:47:39;19.80;;;13.20;;
57297;SDS011;43147;50.972;18.210;2022-12-07T14:51:14;17.90;;;11.80;;
57297;SDS011;43147;50.972;18.210;2022-12-07T14:54:51;22.60;;;11.80;;
57297;SDS011;43147;50.972;18.210;2022-12-07T14:58:29;22.80;;;12.80;;
57297;SDS011;43147;50.972;18.210;2022-12-07T15:02:08;26.50;;;14.90;;
57297;SDS011;43147;50.972;18.210;2022-12-07T15:05:45;28.80;;;16.10;;
57297;SDS011;43147;50.972;18.210;2022-12-07T15:09:23;27.00;;;16.50;;
57297;SDS011;43147;50.972;18.210;2022-12-07T15:13:01;28.60;;;15.90;;
57297;SDS011;43147;50.972;18.210;2022-12-07T15:16:56;28.00;;;14.30;;
57297;SDS011;43147;50.972;18.210;2022-12-07T15:20:34;20.30;;;12.30;;
57297;SDS011;43147;50.972;18.210;2022-12-07T15:24:12;23.30;;;14.10;;
57297;SDS011;43147;50.972;18.210;2022-12-07T15:27:50;27.10;;;14.60;;
57297;SDS011;43147;50.972;18.210;2022-12-07T15:31:27;29.50;;;14.80;;
57297;SDS011;43147;50.972;18.210;2022-12-07T15:35:05;33.10;;;17.40;;
57297;SDS011;43147;50.972;18.210;2022-12-07T15:38:43;41.20;;;18.60;;
57297;SDS011;43147;50.972;18.210;2022-12-07T15:42:21;44.20;;;18.50;;
57297;SDS011;43147;50.972;18.210;2022-12-07T15:45:59;42.40;;;18.30;;
57297;SDS011;43147;50.972;18.210;2022-12-07T15:49:36;65.60;;;23.80;;
57297;SDS011;43147;50.972;18.210;2022-12-07T15:53:14;58.30;;;24.60;;
57297;SDS011;43147;50.972;18.210;2022-12-07T15:56:52;53.80;;;24.30;;
57297;SDS011;43147;50.972;18.210;2022-12-07T16:00:29;36.90;;;20.60;;
57297;SDS011;43147;50.972;18.210;2022-12-07T16:04:07;32.20;;;18.80;;
57297;SDS011;43147;50.972;18.210;2022-12-07T16:07:45;33.70;;;15.40;;
57297;SDS011;43147;50.972;18.210;2022-12-07T16:11:22;35.60;;;18.30;;
57297;SDS011;43147;50.972;18.210;2022-12-07T16:15:00;34.10;;;17.20;;
57297;SDS011;43147;50.972;18.210;2022-12-07T16:18:39;33.60;;;17.50;;
57297;SDS011;43147;50.972;18.210;2022-12-07T16:22:16;48.70;;;19.40;;
57297;SDS011;43147;50.972;18.210;2022-12-07T16:25:54;59.80;;;20.60;;
57297;SDS011;43147;50.972;18.210;2022-12-07T16:29:32;35.10;;;15.80;;
57297;SDS011;43147;50.972;18.210;2022-12-07T16:33:10;20.20;;;11.40;;
57297;SDS011;43147;50.972;18.210;2022-12-07T16:36:48;15.90;;;10.20;;
57297;SDS011;43147;50.972;18.210;2022-12-07T16:40:25;18.20;;;10.60;;
57297;SDS011;43147;50.972;18.210;2022-12-07T16:44:05;22.50;;;12.50;;
57297;SDS011;43147;50.972;18.210;2022-12-07T16:47:42;33.40;;;15.50;;
57297;SDS011;43147;50.972;18.210;2022-12-07T16:51:19;56.10;;;19.20;;
57297;SDS011;43147;50.972;18.210;2022-12-07T16:54:57;47.10;;;19.20;;
57297;SDS011;43147;50.972;18.210;2022-12-07T16:58:35;49.20;;;20.60;;
57297;SDS011;43147;50.972;18.210;2022-12-07T17:02:12;55.70;;;21.90;;
57297;SDS011;43147;50.972;18.210;2022-12-07T17:05:50;40.40;;;18.10;;
57297;SDS011;43147;50.972;18.210;2022-12-07T17:09:28;41.10;;;18.40;;
57297;SDS011;43147;50.972;18.210;2022-12-07T17:13:06;37.00;;;17.40;;
57297;SDS011;43147;50.972;18.210;2022-12-07T17:17:00;46.30;;;18.80;;
57297;SDS011;43147;50.972;18.210;2022-12-07T17:20:38;51.70;;;20.50;;
57297;SDS011;43147;50.972;18.210;2022-12-07T17:24:16;40.90;;;19.90;;
57297;SDS011;43147;50.972;18.210;2022-12-07T17:27:53;42.80;;;20.90;;
57297;SDS011;43147;50.972;18.210;2022-12-07T17:31:31;48.00;;;25.60;;
57297;SDS011;43147;50.972;18.210;2022-12-07T17:35:08;41.90;;;22.90;;
57297;SDS011;43147;50.972;18.210;2022-12-07T17:38:46;39.00;;;20.70;;
57297;SDS011;43147;50.972;18.210;2022-12-07T17:42:26;42.60;;;21.90;;
57297;SDS011;43147;50.972;18.210;2022-12-07T17:46:11;44.60;;;22.40;;
57297;SDS011;43147;50.972;18.210;2022-12-07T17:49:49;43.70;;;24.80;;
57297;SDS011;43147;50.972;18.210;2022-12-07T17:53:26;42.00;;;22.60;;
57297;SDS011;43147;50.972;18.210;2022-12-07T17:57:04;49.30;;;23.70;;
57297;SDS011;43147;50.972;18.210;2022-12-07T18:00:43;33.90;;;19.00;;
57297;SDS011;43147;50.972;18.210;2022-12-07T18:04:19;39.90;;;18.90;;
57297;SDS011;43147;50.972;18.210;2022-12-07T18:07:57;31.30;;;16.60;;
57297;SDS011;43147;50.972;18.210;2022-12-07T18:11:35;30.70;;;17.50;;
57297;SDS011;43147;50.972;18.210;2022-12-07T18:15:12;38.40;;;18.20;;
57297;SDS011;43147;50.972;18.210;2022-12-07T18:18:50;36.50;;;17.90;;
57297;SDS011;43147;50.972;18.210;2022-12-07T18:22:29;32.00;;;17.40;;
57297;SDS011;43147;50.972;18.210;2022-12-07T18:26:06;29.00;;;16.00;;
57297;SDS011;43147;50.972;18.210;2022-12-07T18:29:44;32.40;;;18.70;;
57297;SDS011;43147;50.972;18.210;2022-12-07T18:33:22;40.90;;;22.50;;
57297;SDS011;43147;50.972;18.210;2022-12-07T18:36:59;29.60;;;14.50;;
57297;SDS011;43147;50.972;18.210;2022-12-07T18:40:37;25.30;;;15.10;;
57297;SDS011;43147;50.972;18.210;2022-12-07T18:44:15;25.20;;;13.90;;
57297;SDS011;43147;50.972;18.210;2022-12-07T18:47:52;24.40;;;13.70;;
57297;SDS011;43147;50.972;18.210;2022-12-07T18:51:30;28.70;;;15.60;;
57297;SDS011;43147;50.972;18.210;2022-12-07T18:55:09;24.40;;;13.90;;
57297;SDS011;43147;50.972;18.210;2022-12-07T18:58:53;35.50;;;17.20;;
57297;SDS011;43147;50.972;18.210;2022-12-07T19:03:08;31.70;;;16.80;;
57297;SDS011;43147;50.972;18.210;2022-12-07T19:06:26;31.00;;;17.90;;
57297;SDS011;43147;50.972;18.210;2022-12-07T19:10:04;29.90;;;17.40;;
57297;SDS011;43147;50.972;18.210;2022-12-07T19:13:42;31.90;;;18.50;;
57297;SDS011;43147;50.972;18.210;2022-12-07T19:17:20;40.80;;;20.90;;
57297;SDS011;43147;50.972;18.210;2022-12-07T19:21:00;33.70;;;17.10;;
57297;SDS011;43147;50.972;18.210;2022-12-07T19:24:37;41.00;;;19.50;;
57297;SDS011;43147;50.972;18.210;2022-12-07T19:28:15;34.70;;;18.70;;
57297;SDS011;43147;50.972;18.210;2022-12-07T19:31:53;45.30;;;20.60;;
57297;SDS011;43147;50.972;18.210;2022-12-07T19:35:30;45.50;;;21.70;;
57297;SDS011;43147;50.972;18.210;2022-12-07T19:39:08;37.30;;;21.00;;
57297;SDS011;43147;50.972;18.210;2022-12-07T19:42:46;49.10;;;22.80;;
57297;SDS011;43147;50.972;18.210;2022-12-07T19:46:23;56.50;;;23.50;;
57297;SDS011;43147;50.972;18.210;2022-12-07T19:50:01;40.90;;;20.10;;
57297;SDS011;43147;50.972;18.210;2022-12-07T19:53:39;44.80;;;21.80;;
57297;SDS011;43147;50.972;18.210;2022-12-07T19:57:17;49.00;;;23.30;;
57297;SDS011;43147;50.972;18.210;2022-12-07T20:00:54;42.80;;;21.80;;
57297;SDS011;43147;50.972;18.210;2022-12-07T20:04:34;36.00;;;19.70;;
57297;SDS011;43147;50.972;18.210;2022-12-07T20:08:10;73.70;;;29.20;;
57297;SDS011;43147;50.972;18.210;2022-12-07T20:11:47;45.80;;;19.50;;
57297;SDS011;43147;50.972;18.210;2022-12-07T20:15:42;66.10;;;32.30;;
57297;SDS011;43147;50.972;18.210;2022-12-07T20:19:20;76.80;;;37.20;;
57297;SDS011;43147;50.972;18.210;2022-12-07T20:22:57;58.90;;;29.00;;
57297;SDS011;43147;50.972;18.210;2022-12-07T20:26:35;49.10;;;22.60;;
57297;SDS011;43147;50.972;18.210;2022-12-07T20:30:13;36.40;;;19.80;;
57297;SDS011;43147;50.972;18.210;2022-12-07T20:34:13;42.20;;;23.00;;
57297;SDS011;43147;50.972;18.210;2022-12-07T20:37:28;56.40;;;25.70;;
57297;SDS011;43147;50.972;18.210;2022-12-07T20:41:07;110.90;;;40.40;;
57297;SDS011;43147;50.972;18.210;2022-12-07T20:45:06;139.70;;;46.40;;
57297;SDS011;43147;50.972;18.210;2022-12-07T20:49:02;52.00;;;23.50;;
57297;SDS011;43147;50.972;18.210;2022-12-07T20:52:21;39.30;;;20.70;;
57297;SDS011;43147;50.972;18.210;2022-12-07T20:55:58;39.20;;;19.50;;
57297;SDS011;43147;50.972;18.210;2022-12-07T20:59:37;39.60;;;20.20;;
57297;SDS011;43147;50.972;18.210;2022-12-07T21:03:14;32.70;;;17.80;;
57297;SDS011;43147;50.972;18.210;2022-12-07T21:06:51;36.30;;;18.40;;
57297;SDS011;43147;50.972;18.210;2022-12-07T21:10:29;34.40;;;19.90;;
57297;SDS011;43147;50.972;18.210;2022-12-07T21:14:07;49.30;;;20.70;;
57297;SDS011;43147;50.972;18.210;2022-12-07T21:17:45;39.50;;;20.60;;
57297;SDS011;43147;50.972;18.210;2022-12-07T21:21:22;42.60;;;23.00;;
57297;SDS011;43147;50.972;18.210;2022-12-07T21:25:00;49.30;;;23.60;;
57297;SDS011;43147;50.972;18.210;2022-12-07T21:28:38;49.20;;;23.30;;
57297;SDS011;43147;50.972;18.210;2022-12-07T21:32:15;43.20;;;23.90;;
57297;SDS011;43147;50.972;18.210;2022-12-07T21:35:53;41.70;;;22.40;;
57297;SDS011;43147;50.972;18.210;2022-12-07T21:39:31;111.60;;;40.80;;
57297;SDS011;43147;50.972;18.210;2022-12-07T21:43:09;134.60;;;52.50;;
57297;SDS011;43147;50.972;18.210;2022-12-07T21:46:47;128.10;;;55.30;;
57297;SDS011;43147;50.972;18.210;2022-12-07T21:50:24;92.00;;;42.40;;
57297;SDS011;43147;50.972;18.210;2022-12-07T21:54:02;76.30;;;37.50;;
57297;SDS011;43147;50.972;18.210;2022-12-07T21:57:39;62.30;;;29.80;;
57297;SDS011;43147;50.972;18.210;2022-12-07T22:01:18;54.30;;;25.80;;
57297;SDS011;43147;50.972;18.210;2022-12-07T22:04:54;56.60;;;26.50;;
57297;SDS011;43147;50.972;18.210;2022-12-07T22:08:32;48.90;;;23.00;;
57297;SDS011;43147;50.972;18.210;2022-12-07T22:12:10;61.50;;;26.60;;
57297;SDS011;43147;50.972;18.210;2022-12-07T22:15:47;66.80;;;31.10;;
57297;SDS011;43147;50.972;18.210;2022-12-07T22:19:25;85.60;;;37.20;;
57297;SDS011;43147;50.972;18.210;2022-12-07T22:23:05;62.50;;;32.60;;
57297;SDS011;43147;50.972;18.210;2022-12-07T22:26:41;58.40;;;28.60;;
57297;SDS011;43147;50.972;18.210;2022-12-07T22:30:23;39.40;;;20.00;;
57297;SDS011;43147;50.972;18.210;2022-12-07T22:33:56;33.10;;;16.40;;
57297;SDS011;43147;50.972;18.210;2022-12-07T22:37:35;30.70;;;15.20;;
57297;SDS011;43147;50.972;18.210;2022-12-07T22:41:14;42.40;;;17.40;;
57297;SDS011;43147;50.972;18.210;2022-12-07T22:44:53;36.60;;;18.10;;
57297;SDS011;43147;50.972;18.210;2022-12-07T22:48:31;43.40;;;18.90;;
57297;SDS011;43147;50.972;18.210;2022-12-07T22:52:08;30.30;;;15.80;;
57297;SDS011;43147;50.972;18.210;2022-12-07T22:55:46;29.50;;;16.90;;
57297;SDS011;43147;50.972;18.210;2022-12-07T22:59:23;32.60;;;17.30;;
57297;SDS011;43147;50.972;18.210;2022-12-07T23:03:01;34.60;;;17.90;;
57297;SDS011;43147;50.972;18.210;2022-12-07T23:06:39;31.70;;;17.60;;
57297;SDS011;43147;50.972;18.210;2022-12-07T23:10:17;30.80;;;15.70;;
57297;SDS011;43147;50.972;18.210;2022-12-07T23:13:54;26.90;;;15.50;;